createdAt,value
2022-08-03T00:02:31.879Z,4.00
2022-08-03T00:07:34.766Z,4.70
2022-08-03T00:12:38.863Z,4.30
2022-08-03T00:17:53.280Z,5.63
2022-08-03T00:22:56.619Z,4.65
2022-08-03T00:28:00.803Z,4.75
2022-08-03T00:33:03.773Z,3.38
2022-08-03T00:38:06.809Z,4.57
2022-08-03T00:43:11.544Z,3.65
2022-08-03T00:48:19.767Z,5.13
2022-08-03T00:53:36.782Z,4.20
2022-08-03T00:58:40.936Z,4.65
2022-08-03T01:03:43.938Z,3.70
2022-08-03T01:08:53.451Z,3.50
2022-08-03T01:14:18.313Z,3.65
2022-08-03T01:19:37.515Z,3.38
2022-08-03T01:24:51.869Z,3.53
2022-08-03T01:30:05.460Z,3.53
2022-08-03T01:35:11.734Z,3.80
2022-08-03T01:40:16.884Z,3.65
2022-08-03T01:45:23.595Z,3.45
2022-08-03T01:50:30.321Z,3.63
2022-08-03T01:55:35.723Z,3.60
2022-08-03T02:00:41.752Z,3.33
2022-08-03T02:05:46.902Z,3.50
2022-08-03T02:10:51.230Z,4.13
2022-08-03T02:15:56.664Z,3.95
2022-08-03T02:21:01.497Z,4.18
2022-08-03T02:26:18.594Z,3.53
2022-08-03T02:31:25.502Z,3.38
2022-08-03T02:36:31.381Z,4.33
2022-08-03T02:41:38.421Z,3.50
2022-08-03T02:46:48.066Z,3.65
2022-08-03T02:51:54.319Z,3.72
2022-08-03T02:56:59.543Z,4.07
2022-08-03T03:02:04.376Z,3.90
2022-08-03T03:07:07.553Z,3.78
2022-08-03T03:12:14.163Z,3.60
2022-08-03T03:17:20.697Z,4.00
2022-08-03T03:22:25.492Z,3.55
2022-08-03T03:27:28.418Z,3.92
2022-08-03T03:32:34.229Z,4.22
2022-08-03T03:37:37.094Z,4.03
2022-08-03T03:42:39.999Z,3.67
2022-08-03T03:47:45.553Z,4.13
2022-08-03T03:52:48.406Z,3.85
2022-08-03T03:57:51.448Z,4.10
2022-08-03T04:02:55.870Z,4.10
2022-08-03T04:08:18.275Z,3.67
2022-08-03T04:13:22.969Z,3.55
2022-08-03T04:18:29.743Z,3.60
2022-08-03T04:23:36.723Z,4.88
2022-08-03T04:28:42.350Z,4.07
2022-08-03T04:33:47.434Z,3.22
2022-08-03T04:39:01.693Z,3.35
2022-08-03T04:44:06.310Z,4.07
2022-08-03T04:49:11.269Z,3.97
2022-08-03T04:54:17.045Z,3.47
2022-08-03T04:59:19.815Z,4.00
2022-08-03T05:04:24.041Z,3.75
2022-08-03T05:09:49.789Z,4.30
2022-08-03T05:14:49.594Z,4.30
2022-08-03T05:19:53.835Z,4.13
2022-08-03T05:24:56.767Z,3.70
2022-08-03T05:30:31.225Z,4.57
2022-08-03T05:36:01.382Z,4.00
2022-08-03T05:40:56.736Z,4.53
2022-08-03T05:46:01.757Z,4.43
2022-08-03T05:51:16.971Z,4.30
2022-08-03T05:56:23.556Z,3.90
2022-08-03T06:01:26.523Z,3.93
2022-08-03T06:06:32.413Z,3.30
2022-08-03T06:11:35.348Z,4.63
2022-08-03T06:16:38.558Z,3.72
2022-08-03T06:21:42.940Z,4.18
2022-08-03T06:26:48.047Z,2.80
2022-08-03T06:31:51.016Z,3.80
2022-08-03T06:36:59.953Z,2.90
2022-08-03T06:42:04.888Z,3.80
2022-08-03T06:47:08.648Z,3.97
2022-08-03T06:52:12.973Z,3.13
2022-08-03T06:57:37.095Z,2.83
2022-08-03T07:02:40.433Z,2.58
2022-08-03T07:07:44.857Z,3.28
2022-08-03T07:12:55.855Z,2.45
2022-08-03T07:18:00.058Z,2.97
2022-08-03T07:23:04.424Z,2.97
2022-08-03T07:28:08.263Z,2.65
2022-08-03T07:33:11.038Z,2.35
2022-08-03T07:38:16.265Z,2.50
2022-08-03T07:43:19.204Z,2.60
2022-08-03T07:48:22.076Z,2.30
2022-08-03T07:53:27.883Z,2.42
2022-08-03T07:58:30.671Z,2.22
2022-08-03T08:03:52.164Z,2.03
2022-08-03T08:09:01.744Z,1.83
2022-08-03T08:14:05.462Z,2.03
2022-08-03T08:19:08.322Z,1.65
2022-08-03T08:24:18.284Z,2.05
2022-08-03T08:29:24.104Z,2.25
2022-08-03T08:34:26.884Z,2.03
2022-08-03T08:39:31.702Z,2.10
2022-08-03T08:44:38.021Z,2.15
2022-08-03T08:49:53.446Z,1.98
2022-08-03T08:55:08.397Z,2.20
2022-08-03T09:00:14.945Z,2.08
2022-08-03T09:10:49.660Z,1.45
2022-08-03T09:16:11.182Z,1.85
2022-08-03T09:21:31.047Z,2.13
2022-08-03T09:26:38.780Z,1.83
2022-08-03T09:31:45.041Z,1.93
2022-08-03T09:36:50.647Z,1.52
2022-08-03T09:42:09.746Z,1.80
2022-08-03T09:47:14.293Z,1.63
2022-08-03T09:52:31.677Z,2.25
2022-08-03T09:57:48.676Z,1.40
2022-08-03T10:03:05.450Z,1.90
2022-08-03T10:08:16.720Z,1.67
2022-08-03T10:13:22.637Z,1.38
2022-08-03T10:18:26.635Z,0.98
2022-08-03T10:23:33.511Z,1.63
2022-08-03T10:28:45.356Z,1.40
2022-08-03T10:33:53.028Z,1.30
2022-08-03T10:38:57.246Z,1.58
2022-08-03T10:44:06.673Z,1.50
2022-08-03T10:49:13.325Z,1.15
2022-08-03T10:55:03.079Z,1.33
2022-08-03T11:00:10.751Z,2.05
2022-08-03T11:05:26.883Z,1.10
2022-08-03T11:10:32.610Z,1.15
2022-08-03T11:15:38.595Z,1.27
2022-08-03T11:20:52.454Z,1.25
2022-08-03T11:26:15.549Z,1.20
2022-08-03T11:31:50.589Z,1.05
2022-08-03T11:37:22.308Z,1.80
2022-08-03T11:42:45.585Z,1.40
2022-08-03T11:47:54.953Z,1.30
2022-08-03T11:52:57.833Z,1.27
2022-08-03T11:59:12.804Z,1.40
2022-08-03T12:08:52.271Z,1.33
2022-08-03T12:14:30.063Z,1.38
2022-08-03T12:19:19.497Z,1.50
2022-08-03T12:24:22.593Z,1.17
2022-08-03T12:29:25.763Z,1.58
2022-08-03T12:34:49.075Z,1.13
2022-08-03T12:40:00.498Z,1.30
2022-08-03T12:45:23.292Z,0.90
2022-08-03T12:50:32.826Z,1.20
2022-08-03T12:55:57.344Z,8.02
2022-08-03T13:00:59.144Z,1.17
2022-08-03T13:06:03.816Z,1.27
2022-08-03T13:11:52.542Z,1.20
2022-08-03T13:16:47.433Z,2.33
2022-08-03T13:21:53.595Z,1.13
2022-08-03T13:28:12.307Z,1.27
2022-08-03T13:32:30.313Z,1.33
2022-08-03T13:42:38.941Z,1.10
2022-08-03T13:47:42.877Z,1.50
2022-08-03T13:52:47.503Z,1.25
2022-08-03T13:58:18.929Z,1.80
2022-08-03T14:03:14.728Z,1.10
2022-08-03T14:08:44.796Z,1.10
2022-08-03T14:13:47.599Z,1.30
2022-08-03T14:18:50.560Z,1.30
2022-08-03T14:23:55.224Z,1.08
2022-08-03T14:28:58.115Z,1.30
2022-08-03T14:34:01.053Z,1.42
2022-08-03T14:39:05.346Z,1.33
2022-08-03T14:44:08.528Z,1.30
2022-08-03T14:50:31.791Z,1.38
2022-08-03T14:54:35.482Z,1.42
2022-08-03T14:59:56.190Z,1.50
2022-08-03T15:05:00.229Z,1.50
2022-08-03T15:10:04.941Z,1.65
2022-08-03T15:15:09.010Z,1.95
2022-08-03T15:20:22.486Z,2.50
2022-08-03T15:26:31.703Z,2.70
2022-08-03T15:30:52.879Z,3.60
2022-08-03T15:35:56.198Z,3.80
2022-08-03T15:41:00.455Z,4.40
2022-08-03T15:46:28.121Z,4.68
2022-08-03T15:51:25.985Z,4.90
2022-08-03T15:56:31.160Z,5.60
2022-08-03T16:01:34.044Z,6.45
2022-08-03T16:06:37.994Z,5.70
2022-08-03T16:11:44.259Z,6.60
2022-08-03T16:16:47.157Z,4.72
2022-08-03T16:21:50.427Z,3.63
2022-08-03T16:26:54.613Z,4.00
2022-08-03T16:31:57.416Z,4.30
2022-08-03T16:37:07.929Z,3.17
2022-08-03T16:42:24.538Z,3.53
2022-08-03T16:47:27.374Z,3.78
2022-08-03T16:52:30.099Z,3.10
2022-08-03T16:57:59.343Z,2.20
2022-08-03T17:02:58.555Z,1.90
2022-08-03T17:08:04.334Z,1.30
2022-08-03T17:18:29.713Z,1.35
2022-08-03T17:23:42.955Z,1.50
2022-08-03T17:28:57.540Z,1.60
2022-08-03T17:34:04.430Z,1.73
2022-08-03T17:39:09.815Z,1.30
2022-08-03T17:44:35.196Z,1.52
2022-08-03T17:55:56.673Z,1.60
2022-08-03T18:00:42.641Z,1.83
2022-08-03T18:06:11.276Z,1.40
2022-08-03T18:11:14.988Z,1.75
2022-08-03T18:16:26.104Z,2.28
2022-08-03T18:22:02.032Z,3.05
2022-08-03T18:26:55.472Z,2.60
2022-08-03T18:32:03.881Z,1.90
2022-08-03T18:37:08.750Z,1.67
2022-08-03T18:42:19.637Z,1.60
2022-08-03T18:47:50.815Z,2.08
2022-08-03T18:53:03.866Z,2.47
2022-08-03T18:58:33.614Z,1.90
2022-08-03T19:03:41.506Z,1.98
2022-08-03T19:08:48.811Z,1.77
2022-08-03T19:13:53.993Z,2.40
2022-08-03T19:19:00.916Z,2.33
2022-08-03T19:24:10.113Z,2.72
2022-08-03T19:29:15.024Z,3.08
2022-08-03T19:34:21.110Z,2.15
2022-08-03T19:39:27.300Z,2.40
2022-08-03T19:44:33.299Z,3.03
2022-08-03T19:50:04.891Z,2.00
2022-08-03T19:55:05.986Z,3.05
2022-08-03T20:00:12.527Z,2.30
2022-08-03T20:05:19.260Z,2.25
2022-08-03T20:10:22.321Z,2.10
2022-08-03T20:15:31.572Z,8.23
2022-08-03T20:20:37.979Z,10.88
2022-08-03T20:25:48.624Z,5.55
2022-08-03T20:30:59.921Z,4.68
2022-08-03T20:36:04.607Z,3.53
2022-08-03T20:41:07.736Z,3.67
2022-08-03T20:46:31.032Z,2.75
2022-08-03T20:51:50.350Z,6.35
2022-08-03T20:56:56.505Z,5.20
2022-08-03T21:01:59.258Z,6.10
2022-08-03T21:07:14.740Z,3.95
2022-08-03T21:12:31.129Z,3.03
2022-08-03T21:17:40.874Z,3.25
2022-08-03T21:22:49.815Z,2.88
2022-08-03T21:27:52.993Z,3.63
2022-08-03T21:32:57.340Z,7.85
2022-08-03T21:38:15.809Z,9.48
2022-08-03T21:43:19.124Z,6.60
2022-08-03T21:48:25.151Z,7.68
2022-08-03T21:58:55.921Z,5.50
2022-08-03T22:03:58.948Z,3.53
2022-08-03T22:09:04.625Z,6.35
2022-08-03T22:14:07.572Z,8.07
2022-08-03T22:19:10.483Z,10.10
2022-08-03T22:24:17.143Z,14.07
2022-08-03T22:29:20.128Z,16.77
2022-08-03T22:34:26.826Z,13.93
2022-08-03T22:39:32.285Z,21.58
2022-08-03T22:44:36.566Z,18.00
2022-08-03T22:49:40.075Z,12.32
2022-08-03T22:54:44.344Z,33.33
2022-08-03T22:59:47.463Z,14.93
2022-08-03T23:04:53.118Z,9.38
2022-08-03T23:09:57.643Z,13.93
2022-08-03T23:15:03.129Z,17.85
2022-08-03T23:20:09.446Z,20.13
2022-08-03T23:25:13.952Z,5.10
2022-08-03T23:30:17.044Z,4.30
2022-08-03T23:36:28.146Z,4.47
2022-08-03T23:41:05.231Z,5.70
2022-08-03T23:46:10.004Z,4.85
2022-08-03T23:51:25.711Z,4.18
2022-08-03T23:56:42.715Z,3.63
